sensor_id;sensor_type;location;lat;lon;timestamp;temperature;humidity
23540;DHT22;11947;50.810;4.394;2023-08-06T00:00:05;15.50;99.90
23540;DHT22;11947;50.810;4.394;2023-08-06T00:02:31;15.50;99.90
23540;DHT22;11947;50.810;4.394;2023-08-06T00:04:56;15.50;99.90
23540;DHT22;11947;50.810;4.394;2023-08-06T00:07:22;15.50;99.90
23540;DHT22;11947;50.810;4.394;2023-08-06T00:09:48;15.50;99.90
23540;DHT22;11947;50.810;4.394;2023-08-06T00:12:14;15.50;99.90
23540;DHT22;11947;50.810;4.394;2023-08-06T00:14:39;15.60;99.90
23540;DHT22;11947;50.810;4.394;2023-08-06T00:17:05;15.60;99.90
23540;DHT22;11947;50.810;4.394;2023-08-06T00:19:31;15.60;99.90
23540;DHT22;11947;50.810;4.394;2023-08-06T00:21:57;15.60;99.90
23540;DHT22;11947;50.810;4.394;2023-08-06T00:24:23;15.60;99.90
23540;DHT22;11947;50.810;4.394;2023-08-06T00:26:49;15.70;99.90
23540;DHT22;11947;50.810;4.394;2023-08-06T00:31:42;15.80;99.90
23540;DHT22;11947;50.810;4.394;2023-08-06T00:34:08;15.90;99.90
23540;DHT22;11947;50.810;4.394;2023-08-06T00:36:34;15.80;99.90
23540;DHT22;11947;50.810;4.394;2023-08-06T00:39:00;15.80;99.90
23540;DHT22;11947;50.810;4.394;2023-08-06T00:41:26;15.80;99.90
23540;DHT22;11947;50.810;4.394;2023-08-06T00:43:52;15.80;99.90
23540;DHT22;11947;50.810;4.394;2023-08-06T00:46:37;15.80;99.90
23540;DHT22;11947;50.810;4.394;2023-08-06T00:49:15;15.80;99.90
23540;DHT22;11947;50.810;4.394;2023-08-06T00:52:25;15.70;99.90
23540;DHT22;11947;50.810;4.394;2023-08-06T00:55:15;15.70;99.90
23540;DHT22;11947;50.810;4.394;2023-08-06T00:57:56;15.70;99.90
23540;DHT22;11947;50.810;4.394;2023-08-06T01:00:27;15.70;99.90
23540;DHT22;11947;50.810;4.394;2023-08-06T01:02:53;15.80;99.90
23540;DHT22;11947;50.810;4.394;2023-08-06T01:05:20;15.70;99.90
23540;DHT22;11947;50.810;4.394;2023-08-06T01:13:33;15.70;99.90
23540;DHT22;11947;50.810;4.394;2023-08-06T01:16:05;15.70;99.90
23540;DHT22;11947;50.810;4.394;2023-08-06T01:18:40;15.70;99.90
23540;DHT22;11947;50.810;4.394;2023-08-06T01:21:17;15.70;99.90
23540;DHT22;11947;50.810;4.394;2023-08-06T01:23:43;15.70;99.90
23540;DHT22;11947;50.810;4.394;2023-08-06T01:26:45;15.70;99.90
23540;DHT22;11947;50.810;4.394;2023-08-06T01:29:28;15.50;99.90
23540;DHT22;11947;50.810;4.394;2023-08-06T01:31:58;15.60;99.90
23540;DHT22;11947;50.810;4.394;2023-08-06T01:34:28;15.60;99.90
23540;DHT22;11947;50.810;4.394;2023-08-06T01:36:57;15.70;99.90
23540;DHT22;11947;50.810;4.394;2023-08-06T01:39:23;15.60;99.90
23540;DHT22;11947;50.810;4.394;2023-08-06T01:41:58;15.60;99.90
23540;DHT22;11947;50.810;4.394;2023-08-06T01:44:27;15.60;99.90
23540;DHT22;11947;50.810;4.394;2023-08-06T01:46:54;15.60;99.90
23540;DHT22;11947;50.810;4.394;2023-08-06T01:49:21;15.60;99.90
23540;DHT22;11947;50.810;4.394;2023-08-06T01:51:47;15.70;99.90
23540;DHT22;11947;50.810;4.394;2023-08-06T01:54:26;15.60;99.90
23540;DHT22;11947;50.810;4.394;2023-08-06T01:56:53;15.60;99.90
23540;DHT22;11947;50.810;4.394;2023-08-06T01:59:19;15.70;99.90
23540;DHT22;11947;50.810;4.394;2023-08-06T02:02:00;15.70;99.90
23540;DHT22;11947;50.810;4.394;2023-08-06T02:04:26;15.70;99.90
23540;DHT22;11947;50.810;4.394;2023-08-06T02:06:51;15.60;99.90
23540;DHT22;11947;50.810;4.394;2023-08-06T02:09:17;15.60;99.90
23540;DHT22;11947;50.810;4.394;2023-08-06T02:11:44;15.60;99.90
23540;DHT22;11947;50.810;4.394;2023-08-06T02:14:10;15.60;99.90
23540;DHT22;11947;50.810;4.394;2023-08-06T02:16:36;15.60;99.90
23540;DHT22;11947;50.810;4.394;2023-08-06T02:19:03;15.50;99.90
23540;DHT22;11947;50.810;4.394;2023-08-06T02:21:30;15.50;99.90
23540;DHT22;11947;50.810;4.394;2023-08-06T02:24:18;15.50;99.90
23540;DHT22;11947;50.810;4.394;2023-08-06T02:26:43;15.50;99.90
23540;DHT22;11947;50.810;4.394;2023-08-06T02:29:09;15.50;99.90
23540;DHT22;11947;50.810;4.394;2023-08-06T02:31:46;15.40;99.90
23540;DHT22;11947;50.810;4.394;2023-08-06T02:34:11;15.50;99.90
23540;DHT22;11947;50.810;4.394;2023-08-06T02:36:41;15.50;99.90
23540;DHT22;11947;50.810;4.394;2023-08-06T02:39:08;15.50;99.90
23540;DHT22;11947;50.810;4.394;2023-08-06T02:41:33;15.50;99.90
23540;DHT22;11947;50.810;4.394;2023-08-06T02:44:00;15.50;99.90
23540;DHT22;11947;50.810;4.394;2023-08-06T02:46:26;15.40;99.90
23540;DHT22;11947;50.810;4.394;2023-08-06T02:48:53;15.40;99.90
23540;DHT22;11947;50.810;4.394;2023-08-06T02:51:18;15.50;99.90
23540;DHT22;11947;50.810;4.394;2023-08-06T02:53:50;15.50;99.90
23540;DHT22;11947;50.810;4.394;2023-08-06T02:56:17;15.60;99.90
23540;DHT22;11947;50.810;4.394;2023-08-06T02:58:44;15.50;99.90
23540;DHT22;11947;50.810;4.394;2023-08-06T03:01:09;15.40;99.90
23540;DHT22;11947;50.810;4.394;2023-08-06T03:03:35;15.50;99.90
23540;DHT22;11947;50.810;4.394;2023-08-06T03:06:08;15.40;99.90
23540;DHT22;11947;50.810;4.394;2023-08-06T03:08:34;15.40;99.90
23540;DHT22;11947;50.810;4.394;2023-08-06T03:10:59;15.30;99.90
23540;DHT22;11947;50.810;4.394;2023-08-06T03:13:25;15.50;99.90
23540;DHT22;11947;50.810;4.394;2023-08-06T03:16:17;15.40;99.90
23540;DHT22;11947;50.810;4.394;2023-08-06T03:18:44;15.50;99.90
23540;DHT22;11947;50.810;4.394;2023-08-06T03:21:09;15.50;99.90
23540;DHT22;11947;50.810;4.394;2023-08-06T03:23:39;15.40;99.90
23540;DHT22;11947;50.810;4.394;2023-08-06T03:26:06;15.40;99.90
23540;DHT22;11947;50.810;4.394;2023-08-06T03:28:31;15.40;99.90
23540;DHT22;11947;50.810;4.394;2023-08-06T03:31:01;15.40;99.90
23540;DHT22;11947;50.810;4.394;2023-08-06T03:33:27;15.40;99.90
23540;DHT22;11947;50.810;4.394;2023-08-06T03:35:53;15.60;99.90
23540;DHT22;11947;50.810;4.394;2023-08-06T03:38:19;15.60;99.90
23540;DHT22;11947;50.810;4.394;2023-08-06T03:40:46;15.50;99.90
23540;DHT22;11947;50.810;4.394;2023-08-06T03:43:16;15.50;99.90
23540;DHT22;11947;50.810;4.394;2023-08-06T03:45:41;15.50;99.90
23540;DHT22;11947;50.810;4.394;2023-08-06T03:48:08;15.50;99.90
23540;DHT22;11947;50.810;4.394;2023-08-06T03:50:34;15.50;99.90
23540;DHT22;11947;50.810;4.394;2023-08-06T03:53:03;15.60;99.90
23540;DHT22;11947;50.810;4.394;2023-08-06T03:55:29;15.50;99.90
23540;DHT22;11947;50.810;4.394;2023-08-06T03:57:59;15.50;99.90
23540;DHT22;11947;50.810;4.394;2023-08-06T04:00:27;15.50;99.90
23540;DHT22;11947;50.810;4.394;2023-08-06T04:02:54;15.40;99.90
23540;DHT22;11947;50.810;4.394;2023-08-06T04:05:22;15.30;99.90
23540;DHT22;11947;50.810;4.394;2023-08-06T04:07:49;15.30;99.90
23540;DHT22;11947;50.810;4.394;2023-08-06T04:10:14;15.20;99.90
23540;DHT22;11947;50.810;4.394;2023-08-06T04:12:40;15.20;99.90
23540;DHT22;11947;50.810;4.394;2023-08-06T04:15:06;15.20;99.90
23540;DHT22;11947;50.810;4.394;2023-08-06T04:17:32;15.10;99.90
23540;DHT22;11947;50.810;4.394;2023-08-06T04:19:58;15.00;99.90
23540;DHT22;11947;50.810;4.394;2023-08-06T04:22:27;15.00;99.90
23540;DHT22;11947;50.810;4.394;2023-08-06T04:24:53;15.00;99.90
23540;DHT22;11947;50.810;4.394;2023-08-06T04:27:19;15.00;99.90
23540;DHT22;11947;50.810;4.394;2023-08-06T04:29:45;15.00;99.90
23540;DHT22;11947;50.810;4.394;2023-08-06T04:32:10;15.00;99.90
23540;DHT22;11947;50.810;4.394;2023-08-06T04:34:37;15.00;99.90
23540;DHT22;11947;50.810;4.394;2023-08-06T04:37:03;15.00;99.90
23540;DHT22;11947;50.810;4.394;2023-08-06T04:39:29;15.00;99.90
23540;DHT22;11947;50.810;4.394;2023-08-06T04:41:56;15.00;99.90
23540;DHT22;11947;50.810;4.394;2023-08-06T04:44:23;15.00;99.90
23540;DHT22;11947;50.810;4.394;2023-08-06T04:46:49;14.90;99.90
23540;DHT22;11947;50.810;4.394;2023-08-06T04:49:17;14.90;99.90
23540;DHT22;11947;50.810;4.394;2023-08-06T04:51:52;14.80;99.90
23540;DHT22;11947;50.810;4.394;2023-08-06T04:54:17;14.70;99.90
23540;DHT22;11947;50.810;4.394;2023-08-06T04:56:43;14.60;99.90
23540;DHT22;11947;50.810;4.394;2023-08-06T04:59:09;14.60;99.90
23540;DHT22;11947;50.810;4.394;2023-08-06T05:01:34;14.70;99.90
23540;DHT22;11947;50.810;4.394;2023-08-06T05:04:00;14.60;99.90
23540;DHT22;11947;50.810;4.394;2023-08-06T05:06:26;14.60;99.90
23540;DHT22;11947;50.810;4.394;2023-08-06T05:08:51;14.70;99.90
23540;DHT22;11947;50.810;4.394;2023-08-06T05:11:17;14.70;99.90
23540;DHT22;11947;50.810;4.394;2023-08-06T05:13:44;14.70;99.90
23540;DHT22;11947;50.810;4.394;2023-08-06T05:16:10;14.80;99.90
23540;DHT22;11947;50.810;4.394;2023-08-06T05:18:35;14.70;99.90
23540;DHT22;11947;50.810;4.394;2023-08-06T05:21:03;14.60;99.90
23540;DHT22;11947;50.810;4.394;2023-08-06T05:23:28;14.60;99.90
23540;DHT22;11947;50.810;4.394;2023-08-06T05:25:54;14.50;99.90
23540;DHT22;11947;50.810;4.394;2023-08-06T05:28:19;14.60;99.90
23540;DHT22;11947;50.810;4.394;2023-08-06T05:30:45;14.60;99.90
23540;DHT22;11947;50.810;4.394;2023-08-06T05:33:11;14.60;99.90
23540;DHT22;11947;50.810;4.394;2023-08-06T05:35:36;14.60;99.90
23540;DHT22;11947;50.810;4.394;2023-08-06T05:38:02;14.60;99.90
23540;DHT22;11947;50.810;4.394;2023-08-06T05:40:28;14.60;99.90
23540;DHT22;11947;50.810;4.394;2023-08-06T05:42:54;14.60;99.90
23540;DHT22;11947;50.810;4.394;2023-08-06T05:45:20;14.60;99.90
23540;DHT22;11947;50.810;4.394;2023-08-06T05:47:48;14.70;99.90
23540;DHT22;11947;50.810;4.394;2023-08-06T05:50:13;14.70;99.90
23540;DHT22;11947;50.810;4.394;2023-08-06T05:52:39;14.60;99.90
23540;DHT22;11947;50.810;4.394;2023-08-06T05:55:05;14.70;99.90
23540;DHT22;11947;50.810;4.394;2023-08-06T05:57:31;14.70;99.90
23540;DHT22;11947;50.810;4.394;2023-08-06T05:59:56;14.70;99.90
23540;DHT22;11947;50.810;4.394;2023-08-06T06:02:22;14.80;99.90
23540;DHT22;11947;50.810;4.394;2023-08-06T06:04:48;14.70;99.90
23540;DHT22;11947;50.810;4.394;2023-08-06T06:07:13;14.80;99.90
23540;DHT22;11947;50.810;4.394;2023-08-06T06:09:39;14.80;99.90
23540;DHT22;11947;50.810;4.394;2023-08-06T06:12:06;14.80;99.90
23540;DHT22;11947;50.810;4.394;2023-08-06T06:14:31;14.70;99.90
23540;DHT22;11947;50.810;4.394;2023-08-06T06:16:59;14.80;99.90
23540;DHT22;11947;50.810;4.394;2023-08-06T06:19:25;14.90;99.90
23540;DHT22;11947;50.810;4.394;2023-08-06T06:21:51;14.90;99.90
23540;DHT22;11947;50.810;4.394;2023-08-06T06:24:16;15.00;99.90
23540;DHT22;11947;50.810;4.394;2023-08-06T06:26:42;15.10;99.90
23540;DHT22;11947;50.810;4.394;2023-08-06T06:29:07;15.10;99.90
23540;DHT22;11947;50.810;4.394;2023-08-06T06:31:33;15.20;99.90
23540;DHT22;11947;50.810;4.394;2023-08-06T06:33:59;15.30;99.90
23540;DHT22;11947;50.810;4.394;2023-08-06T06:36:24;15.30;99.90
23540;DHT22;11947;50.810;4.394;2023-08-06T06:38:50;15.30;99.90
23540;DHT22;11947;50.810;4.394;2023-08-06T06:41:16;15.30;99.90
23540;DHT22;11947;50.810;4.394;2023-08-06T06:43:41;15.20;99.90
23540;DHT22;11947;50.810;4.394;2023-08-06T06:46:07;15.10;99.90
23540;DHT22;11947;50.810;4.394;2023-08-06T06:48:33;15.00;99.90
23540;DHT22;11947;50.810;4.394;2023-08-06T06:50:59;14.80;99.90
23540;DHT22;11947;50.810;4.394;2023-08-06T06:53:25;14.70;99.90
23540;DHT22;11947;50.810;4.394;2023-08-06T06:56:01;14.70;99.90
23540;DHT22;11947;50.810;4.394;2023-08-06T06:58:28;14.90;99.90
23540;DHT22;11947;50.810;4.394;2023-08-06T07:00:55;14.90;99.90
23540;DHT22;11947;50.810;4.394;2023-08-06T07:03:22;14.90;99.90
23540;DHT22;11947;50.810;4.394;2023-08-06T07:05:49;14.90;99.90
23540;DHT22;11947;50.810;4.394;2023-08-06T07:08:15;14.90;99.90
23540;DHT22;11947;50.810;4.394;2023-08-06T07:10:43;14.80;99.90
23540;DHT22;11947;50.810;4.394;2023-08-06T07:13:10;14.80;99.90
23540;DHT22;11947;50.810;4.394;2023-08-06T07:15:35;14.60;99.90
23540;DHT22;11947;50.810;4.394;2023-08-06T07:18:07;14.70;99.90
23540;DHT22;11947;50.810;4.394;2023-08-06T07:20:33;14.70;99.90
23540;DHT22;11947;50.810;4.394;2023-08-06T07:23:01;14.80;99.90
23540;DHT22;11947;50.810;4.394;2023-08-06T07:25:28;14.90;99.90
23540;DHT22;11947;50.810;4.394;2023-08-06T07:28:02;14.90;99.90
23540;DHT22;11947;50.810;4.394;2023-08-06T07:30:31;15.00;99.90
23540;DHT22;11947;50.810;4.394;2023-08-06T07:32:56;15.10;99.90
23540;DHT22;11947;50.810;4.394;2023-08-06T07:35:22;15.20;99.90
23540;DHT22;11947;50.810;4.394;2023-08-06T07:37:48;15.00;99.90
23540;DHT22;11947;50.810;4.394;2023-08-06T07:40:14;15.00;99.90
23540;DHT22;11947;50.810;4.394;2023-08-06T07:42:40;15.10;99.90
23540;DHT22;11947;50.810;4.394;2023-08-06T07:45:07;15.10;99.90
23540;DHT22;11947;50.810;4.394;2023-08-06T07:47:33;15.30;99.90
23540;DHT22;11947;50.810;4.394;2023-08-06T07:49:59;15.30;99.90
23540;DHT22;11947;50.810;4.394;2023-08-06T07:52:27;15.30;99.90
23540;DHT22;11947;50.810;4.394;2023-08-06T07:54:53;15.20;99.90
23540;DHT22;11947;50.810;4.394;2023-08-06T07:57:20;15.20;99.90
23540;DHT22;11947;50.810;4.394;2023-08-06T07:59:46;15.30;99.90
23540;DHT22;11947;50.810;4.394;2023-08-06T08:02:12;15.40;99.90
23540;DHT22;11947;50.810;4.394;2023-08-06T08:04:37;15.40;99.90
23540;DHT22;11947;50.810;4.394;2023-08-06T08:07:03;15.50;99.90
23540;DHT22;11947;50.810;4.394;2023-08-06T08:09:29;15.60;99.90
23540;DHT22;11947;50.810;4.394;2023-08-06T08:11:56;15.70;99.90
23540;DHT22;11947;50.810;4.394;2023-08-06T08:14:22;15.90;99.90
23540;DHT22;11947;50.810;4.394;2023-08-06T08:16:48;16.00;99.90
23540;DHT22;11947;50.810;4.394;2023-08-06T08:19:14;16.00;99.90
23540;DHT22;11947;50.810;4.394;2023-08-06T08:21:40;16.10;99.90
23540;DHT22;11947;50.810;4.394;2023-08-06T08:24:11;16.00;99.90
23540;DHT22;11947;50.810;4.394;2023-08-06T08:26:38;15.90;99.90
23540;DHT22;11947;50.810;4.394;2023-08-06T08:29:07;15.80;99.90
23540;DHT22;11947;50.810;4.394;2023-08-06T08:31:55;15.80;99.90
23540;DHT22;11947;50.810;4.394;2023-08-06T08:34:27;15.70;99.90
23540;DHT22;11947;50.810;4.394;2023-08-06T08:36:56;15.60;99.90
23540;DHT22;11947;50.810;4.394;2023-08-06T08:39:23;15.50;99.90
23540;DHT22;11947;50.810;4.394;2023-08-06T08:41:57;15.50;99.90
23540;DHT22;11947;50.810;4.394;2023-08-06T08:44:25;15.40;99.90
23540;DHT22;11947;50.810;4.394;2023-08-06T08:47:05;15.50;99.90
23540;DHT22;11947;50.810;4.394;2023-08-06T08:49:32;15.50;99.90
23540;DHT22;11947;50.810;4.394;2023-08-06T08:51:59;15.50;99.90
23540;DHT22;11947;50.810;4.394;2023-08-06T08:54:27;15.60;99.90
23540;DHT22;11947;50.810;4.394;2023-08-06T08:56:54;15.70;99.90
23540;DHT22;11947;50.810;4.394;2023-08-06T08:59:21;15.70;99.90
23540;DHT22;11947;50.810;4.394;2023-08-06T09:01:48;15.60;99.90
23540;DHT22;11947;50.810;4.394;2023-08-06T09:04:18;15.60;99.90
23540;DHT22;11947;50.810;4.394;2023-08-06T09:06:49;15.40;99.90
23540;DHT22;11947;50.810;4.394;2023-08-06T09:09:37;15.50;99.90
23540;DHT22;11947;50.810;4.394;2023-08-06T09:12:14;15.60;99.90
23540;DHT22;11947;50.810;4.394;2023-08-06T09:14:45;15.60;99.90
23540;DHT22;11947;50.810;4.394;2023-08-06T09:17:17;15.50;99.90
23540;DHT22;11947;50.810;4.394;2023-08-06T09:19:46;15.30;99.90
23540;DHT22;11947;50.810;4.394;2023-08-06T09:22:15;15.40;99.90
23540;DHT22;11947;50.810;4.394;2023-08-06T09:24:44;15.30;99.90
23540;DHT22;11947;50.810;4.394;2023-08-06T09:27:13;15.30;99.90
23540;DHT22;11947;50.810;4.394;2023-08-06T09:29:57;15.30;99.90
23540;DHT22;11947;50.810;4.394;2023-08-06T09:32:22;15.20;99.90
23540;DHT22;11947;50.810;4.394;2023-08-06T09:34:59;15.10;99.90
23540;DHT22;11947;50.810;4.394;2023-08-06T09:37:36;15.00;99.90
23540;DHT22;11947;50.810;4.394;2023-08-06T09:40:03;15.00;99.90
23540;DHT22;11947;50.810;4.394;2023-08-06T09:42:30;15.00;99.90
23540;DHT22;11947;50.810;4.394;2023-08-06T09:45:06;15.10;99.90
23540;DHT22;11947;50.810;4.394;2023-08-06T09:47:32;15.10;99.90
23540;DHT22;11947;50.810;4.394;2023-08-06T09:49:57;15.10;99.90
23540;DHT22;11947;50.810;4.394;2023-08-06T09:52:23;15.10;99.90
23540;DHT22;11947;50.810;4.394;2023-08-06T09:54:49;15.10;99.90
23540;DHT22;11947;50.810;4.394;2023-08-06T09:57:16;15.00;99.90
23540;DHT22;11947;50.810;4.394;2023-08-06T09:59:43;15.00;99.90
23540;DHT22;11947;50.810;4.394;2023-08-06T10:02:13;15.00;99.90
23540;DHT22;11947;50.810;4.394;2023-08-06T10:04:44;15.10;99.90
23540;DHT22;11947;50.810;4.394;2023-08-06T10:07:11;15.10;99.90
23540;DHT22;11947;50.810;4.394;2023-08-06T10:09:38;15.20;99.90
23540;DHT22;11947;50.810;4.394;2023-08-06T10:12:06;15.10;99.90
23540;DHT22;11947;50.810;4.394;2023-08-06T10:14:44;15.10;99.90
23540;DHT22;11947;50.810;4.394;2023-08-06T10:17:11;15.10;99.90
23540;DHT22;11947;50.810;4.394;2023-08-06T10:19:37;15.20;99.90
23540;DHT22;11947;50.810;4.394;2023-08-06T10:22:17;15.20;99.90
23540;DHT22;11947;50.810;4.394;2023-08-06T10:27:21;15.20;99.90
23540;DHT22;11947;50.810;4.394;2023-08-06T10:29:48;15.30;99.90
23540;DHT22;11947;50.810;4.394;2023-08-06T10:32:14;15.30;99.90
23540;DHT22;11947;50.810;4.394;2023-08-06T10:34:57;15.30;99.90
23540;DHT22;11947;50.810;4.394;2023-08-06T10:37:25;15.20;99.90
23540;DHT22;11947;50.810;4.394;2023-08-06T10:39:59;15.10;99.90
23540;DHT22;11947;50.810;4.394;2023-08-06T10:42:29;14.90;99.90
23540;DHT22;11947;50.810;4.394;2023-08-06T10:45:18;14.90;99.90
23540;DHT22;11947;50.810;4.394;2023-08-06T10:47:45;14.90;99.90
23540;DHT22;11947;50.810;4.394;2023-08-06T10:50:13;14.80;99.90
23540;DHT22;11947;50.810;4.394;2023-08-06T10:52:39;14.70;99.90
23540;DHT22;11947;50.810;4.394;2023-08-06T10:55:05;14.60;99.90
23540;DHT22;11947;50.810;4.394;2023-08-06T10:57:31;14.60;99.90
23540;DHT22;11947;50.810;4.394;2023-08-06T10:59:57;14.70;99.90
23540;DHT22;11947;50.810;4.394;2023-08-06T11:02:23;14.90;99.90
23540;DHT22;11947;50.810;4.394;2023-08-06T11:04:50;15.00;99.90
23540;DHT22;11947;50.810;4.394;2023-08-06T11:07:16;15.10;99.90
23540;DHT22;11947;50.810;4.394;2023-08-06T11:09:42;15.30;99.90
23540;DHT22;11947;50.810;4.394;2023-08-06T11:12:11;15.30;99.90
23540;DHT22;11947;50.810;4.394;2023-08-06T11:14:37;15.30;99.90
23540;DHT22;11947;50.810;4.394;2023-08-06T11:17:04;15.30;99.90
23540;DHT22;11947;50.810;4.394;2023-08-06T11:19:30;15.30;99.90
23540;DHT22;11947;50.810;4.394;2023-08-06T11:21:56;15.20;99.90
23540;DHT22;11947;50.810;4.394;2023-08-06T11:24:24;15.20;99.90
23540;DHT22;11947;50.810;4.394;2023-08-06T11:26:49;15.20;99.90
23540;DHT22;11947;50.810;4.394;2023-08-06T11:29:15;15.10;99.90
23540;DHT22;11947;50.810;4.394;2023-08-06T11:31:41;15.00;99.90
23540;DHT22;11947;50.810;4.394;2023-08-06T11:34:07;15.10;99.90
23540;DHT22;11947;50.810;4.394;2023-08-06T11:36:40;15.10;99.90
23540;DHT22;11947;50.810;4.394;2023-08-06T11:39:06;15.00;99.90
23540;DHT22;11947;50.810;4.394;2023-08-06T11:41:32;15.00;99.90
23540;DHT22;11947;50.810;4.394;2023-08-06T11:44:01;15.00;99.90
23540;DHT22;11947;50.810;4.394;2023-08-06T11:46:28;15.00;99.90
23540;DHT22;11947;50.810;4.394;2023-08-06T11:48:57;14.90;99.90
23540;DHT22;11947;50.810;4.394;2023-08-06T11:51:24;14.90;99.90
23540;DHT22;11947;50.810;4.394;2023-08-06T11:54:00;14.70;99.90
23540;DHT22;11947;50.810;4.394;2023-08-06T11:56:27;14.80;99.90
23540;DHT22;11947;50.810;4.394;2023-08-06T11:58:54;14.70;99.90
23540;DHT22;11947;50.810;4.394;2023-08-06T12:01:20;14.60;99.90
23540;DHT22;11947;50.810;4.394;2023-08-06T12:03:46;14.70;99.90
23540;DHT22;11947;50.810;4.394;2023-08-06T12:06:11;14.70;99.90
23540;DHT22;11947;50.810;4.394;2023-08-06T12:08:37;14.80;99.90
23540;DHT22;11947;50.810;4.394;2023-08-06T12:11:04;14.90;99.90
23540;DHT22;11947;50.810;4.394;2023-08-06T12:13:29;14.90;99.90
23540;DHT22;11947;50.810;4.394;2023-08-06T12:15:55;15.00;99.90
23540;DHT22;11947;50.810;4.394;2023-08-06T12:18:22;15.00;99.90
23540;DHT22;11947;50.810;4.394;2023-08-06T12:20:48;15.20;99.90
23540;DHT22;11947;50.810;4.394;2023-08-06T12:23:14;15.30;99.90
23540;DHT22;11947;50.810;4.394;2023-08-06T12:25:41;15.30;99.90
23540;DHT22;11947;50.810;4.394;2023-08-06T12:28:07;15.40;99.90
23540;DHT22;11947;50.810;4.394;2023-08-06T12:30:34;15.50;99.90
23540;DHT22;11947;50.810;4.394;2023-08-06T12:32:59;15.70;99.90
23540;DHT22;11947;50.810;4.394;2023-08-06T12:35:25;15.80;99.90
23540;DHT22;11947;50.810;4.394;2023-08-06T12:37:51;15.80;99.90
23540;DHT22;11947;50.810;4.394;2023-08-06T12:40:20;15.80;99.90
23540;DHT22;11947;50.810;4.394;2023-08-06T12:42:45;15.80;99.90
23540;DHT22;11947;50.810;4.394;2023-08-06T12:45:11;15.80;99.90
23540;DHT22;11947;50.810;4.394;2023-08-06T12:47:37;15.70;99.90
23540;DHT22;11947;50.810;4.394;2023-08-06T12:50:03;15.70;99.90
23540;DHT22;11947;50.810;4.394;2023-08-06T12:52:28;15.70;99.90
23540;DHT22;11947;50.810;4.394;2023-08-06T12:54:54;15.70;99.90
23540;DHT22;11947;50.810;4.394;2023-08-06T12:57:20;15.80;99.90
23540;DHT22;11947;50.810;4.394;2023-08-06T12:59:46;15.80;99.90
23540;DHT22;11947;50.810;4.394;2023-08-06T13:02:11;15.90;99.90
23540;DHT22;11947;50.810;4.394;2023-08-06T13:04:37;16.00;99.90
23540;DHT22;11947;50.810;4.394;2023-08-06T13:07:03;16.20;99.90
23540;DHT22;11947;50.810;4.394;2023-08-06T13:09:28;16.20;99.90
23540;DHT22;11947;50.810;4.394;2023-08-06T13:11:55;16.20;99.90
23540;DHT22;11947;50.810;4.394;2023-08-06T13:14:20;16.10;99.90
23540;DHT22;11947;50.810;4.394;2023-08-06T13:16:46;16.10;99.90
23540;DHT22;11947;50.810;4.394;2023-08-06T13:19:12;16.00;99.90
23540;DHT22;11947;50.810;4.394;2023-08-06T13:24:06;16.00;99.90
23540;DHT22;11947;50.810;4.394;2023-08-06T13:26:32;16.00;99.90
23540;DHT22;11947;50.810;4.394;2023-08-06T13:28:58;15.90;99.90
23540;DHT22;11947;50.810;4.394;2023-08-06T13:31:25;15.80;99.90
23540;DHT22;11947;50.810;4.394;2023-08-06T13:33:51;15.80;99.90
23540;DHT22;11947;50.810;4.394;2023-08-06T13:36:17;15.60;99.90
23540;DHT22;11947;50.810;4.394;2023-08-06T13:38:43;15.50;99.90
23540;DHT22;11947;50.810;4.394;2023-08-06T13:41:08;15.30;99.90
23540;DHT22;11947;50.810;4.394;2023-08-06T13:43:34;15.20;99.90
23540;DHT22;11947;50.810;4.394;2023-08-06T13:46:00;15.20;99.90
23540;DHT22;11947;50.810;4.394;2023-08-06T13:48:25;15.10;99.90
23540;DHT22;11947;50.810;4.394;2023-08-06T13:50:51;15.00;99.90
23540;DHT22;11947;50.810;4.394;2023-08-06T13:53:16;15.00;99.90
23540;DHT22;11947;50.810;4.394;2023-08-06T13:55:42;15.10;99.90
23540;DHT22;11947;50.810;4.394;2023-08-06T13:58:08;15.10;99.90
23540;DHT22;11947;50.810;4.394;2023-08-06T14:00:35;15.00;99.90
23540;DHT22;11947;50.810;4.394;2023-08-06T14:03:01;15.00;99.90
23540;DHT22;11947;50.810;4.394;2023-08-06T14:05:26;15.10;99.90
23540;DHT22;11947;50.810;4.394;2023-08-06T14:07:52;15.10;99.90
23540;DHT22;11947;50.810;4.394;2023-08-06T14:10:18;15.00;99.90
23540;DHT22;11947;50.810;4.394;2023-08-06T14:12:43;15.20;99.90
23540;DHT22;11947;50.810;4.394;2023-08-06T14:15:10;15.20;99.90
23540;DHT22;11947;50.810;4.394;2023-08-06T14:17:36;15.20;99.90
23540;DHT22;11947;50.810;4.394;2023-08-06T14:20:02;15.30;99.90
23540;DHT22;11947;50.810;4.394;2023-08-06T14:22:32;15.40;99.90
23540;DHT22;11947;50.810;4.394;2023-08-06T14:24:58;15.40;99.90
23540;DHT22;11947;50.810;4.394;2023-08-06T14:27:24;15.30;99.90
23540;DHT22;11947;50.810;4.394;2023-08-06T14:29:50;15.30;99.90
23540;DHT22;11947;50.810;4.394;2023-08-06T14:32:16;15.30;99.90
23540;DHT22;11947;50.810;4.394;2023-08-06T14:34:44;15.30;99.90
23540;DHT22;11947;50.810;4.394;2023-08-06T14:37:10;15.30;99.90
23540;DHT22;11947;50.810;4.394;2023-08-06T14:39:36;15.20;99.90
23540;DHT22;11947;50.810;4.394;2023-08-06T14:42:03;15.10;99.90
23540;DHT22;11947;50.810;4.394;2023-08-06T14:44:28;15.10;99.90
23540;DHT22;11947;50.810;4.394;2023-08-06T14:46:54;15.00;99.90
23540;DHT22;11947;50.810;4.394;2023-08-06T14:49:19;15.10;99.90
23540;DHT22;11947;50.810;4.394;2023-08-06T14:51:45;15.10;99.90
23540;DHT22;11947;50.810;4.394;2023-08-06T14:54:11;15.10;99.90
23540;DHT22;11947;50.810;4.394;2023-08-06T14:56:37;15.20;99.90
23540;DHT22;11947;50.810;4.394;2023-08-06T14:59:02;15.20;99.90
23540;DHT22;11947;50.810;4.394;2023-08-06T15:01:28;15.30;99.90
23540;DHT22;11947;50.810;4.394;2023-08-06T15:03:54;15.40;99.90
23540;DHT22;11947;50.810;4.394;2023-08-06T15:06:19;15.50;99.90
23540;DHT22;11947;50.810;4.394;2023-08-06T15:08:45;15.60;99.90
23540;DHT22;11947;50.810;4.394;2023-08-06T15:11:13;15.70;99.90
23540;DHT22;11947;50.810;4.394;2023-08-06T15:13:40;15.70;99.90
23540;DHT22;11947;50.810;4.394;2023-08-06T15:16:05;15.80;99.90
23540;DHT22;11947;50.810;4.394;2023-08-06T15:18:31;15.80;99.90
23540;DHT22;11947;50.810;4.394;2023-08-06T15:20:57;15.70;99.90
23540;DHT22;11947;50.810;4.394;2023-08-06T15:23:23;15.70;99.90
23540;DHT22;11947;50.810;4.394;2023-08-06T15:25:49;15.80;99.90
23540;DHT22;11947;50.810;4.394;2023-08-06T15:28:15;15.80;99.90
23540;DHT22;11947;50.810;4.394;2023-08-06T15:30:42;15.90;99.90
23540;DHT22;11947;50.810;4.394;2023-08-06T15:33:14;15.90;99.90
23540;DHT22;11947;50.810;4.394;2023-08-06T15:35:41;15.80;99.90
23540;DHT22;11947;50.810;4.394;2023-08-06T15:38:08;15.70;99.90
23540;DHT22;11947;50.810;4.394;2023-08-06T15:40:33;15.60;99.90
23540;DHT22;11947;50.810;4.394;2023-08-06T15:42:59;15.60;99.90
23540;DHT22;11947;50.810;4.394;2023-08-06T15:45:25;15.60;99.90